Tete-A-La-Baleine, Canada
Current Conditions -  °F | °C
As of 8:00 PM on Saturday 25 Oct 2014 (Local Time) from CWDH Reporting Station
Scattered Clouds Scattered Clouds  
Wind Chill: 31°   Ceiling: Unl
Heat Index: 39°   Visibility: 9mi
Dew Point: 30°   Wind: 14mph
Humidity: 70%   Direction: 50°NE
Pressure: 29.64"   Gusts: NA
Location:  50.7°N, 59.33°W
Report Text: CWDH 252300Z AUTO 05012KT 9SM SCT025 04/M01 A2964 RMK SLP037 PK WND 04021/// T00411009 70033 WSI/SWOB
Loading
Personal Weather Stations






























Interactive Weather Map
Tropical Storm Tracking
New forecast layout! Learn more

10-Day Weather Forecast

Advertisements
Track Severe Weather on mobile